Time;durP1;ratioP1;P1;durP2;ratioP2;P2;SDS_P1;SDS_P2;PMS_P1;PMS_P2;Temp;Humidity;BMP_temperature;BMP_pressure;BME280_temperature;BME280_humidity;BME280_pressure;Samples;Min_cycle;Max_cycle;Signal;HPM_P1;HPM_P2
2023/08/10 00:01:36;;;;;;;;;;;13.70;99.90;;;;;;7324775;19;8945;-82
2023/08/10 00:04:06;;;;;;;;;;;13.70;99.90;;;;;;7325110;19;9452;-82
2023/08/10 00:06:35;;;;;;;;;;;13.70;99.90;;;;;;7323548;19;9478;-82
2023/08/10 00:09:04;;;;;;;;;;;13.60;99.90;;;;;;7324781;19;9280;-83
2023/08/10 00:11:33;;;;;;;;;;;13.50;99.90;;;;;;7325031;19;9192;-82
2023/08/10 00:14:05;;;;;;;;;;;13.50;99.90;;;;;;7324389;19;9469;-82
2023/08/10 00:16:35;;;;;;;;;;;13.40;99.90;;;;;;7324407;19;9219;-82
2023/08/10 00:19:04;;;;;;;;;;;13.40;99.90;;;;;;7324293;19;9360;-82
2023/08/10 00:21:33;;;;;;;;;;;13.30;99.90;;;;;;7324342;19;9169;-83
2023/08/10 00:24:02;;;;;;;;;;;13.30;99.90;;;;;;7323995;19;9285;-82
2023/08/10 00:26:33;;;;;;;;;;;13.30;99.90;;;;;;7323254;19;9205;-82
2023/08/10 00:29:04;;;;;;;;;;;13.30;99.90;;;;;;7324114;19;9553;-82
2023/08/10 00:31:33;;;;;;;;;;;13.30;99.90;;;;;;7324177;19;9420;-82
2023/08/10 00:34:02;;;;;;;;;;;13.20;99.90;;;;;;7324076;19;9216;-82
2023/08/10 00:36:31;;;;;;;;;;;13.20;99.90;;;;;;7323934;19;10818;-82
2023/08/10 00:39:00;;;;;;;;;;;13.20;99.90;;;;;;7323483;19;9465;-82
2023/08/10 00:41:29;;;;;;;;;;;13.10;99.90;;;;;;7322182;19;9187;-82
2023/08/10 00:43:58;;;;;;;;;;;13.10;99.90;;;;;;7327127;19;9157;-82
2023/08/10 00:46:30;;;;;;;;;;;13.00;99.90;;;;;;7323097;19;9189;-82
2023/08/10 00:48:59;;;;;;;;;;;13.00;99.90;;;;;;7323514;19;10201;-82
2023/08/10 00:51:28;;;;;;;;;;;13.00;99.90;;;;;;7323314;19;9478;-82
2023/08/10 00:53:57;;;;;;;;;;;13.00;99.90;;;;;;7323289;19;9002;-82
2023/08/10 00:56:26;;;;;;;;;;;13.00;99.90;;;;;;7323351;19;9024;-82
2023/08/10 00:58:56;;;;;;;;;;;12.90;99.90;;;;;;7322995;19;9205;-82
2023/08/10 01:01:25;;;;;;;;;;;12.90;99.90;;;;;;7321195;19;9181;-82
2023/08/10 01:03:57;;;;;;;;;;;12.90;99.90;;;;;;7322861;19;9122;-82
2023/08/10 01:06:36;;;;;;;;;;;12.80;99.90;;;;;;7322518;19;9468;-82
2023/08/10 01:09:14;;;;;;;;;;;12.80;99.90;;;;;;7322690;19;9222;-82
2023/08/10 01:11:51;;;;;;;;;;;12.80;99.90;;;;;;7322979;19;9161;-83
2023/08/10 01:14:28;;;;;;;;;;;12.70;99.90;;;;;;7322736;19;9451;-83
2023/08/10 01:17:00;;;;;;;;;;;12.70;99.90;;;;;;7322801;19;9115;-82
2023/08/10 01:19:38;;;;;;;;;;;12.70;99.90;;;;;;7322799;19;10339;-82
2023/08/10 01:22:17;;;;;;;;;;;12.70;99.90;;;;;;7322718;19;9256;-82
2023/08/10 01:24:49;;;;;;;;;;;12.70;99.90;;;;;;7322275;19;9260;-82
2023/08/10 01:27:23;;;;;;;;;;;12.70;99.90;;;;;;7321428;19;9193;-82
2023/08/10 01:29:52;;;;;;;;;;;12.70;99.90;;;;;;7322526;19;9190;-82
2023/08/10 01:32:21;;;;;;;;;;;12.70;99.90;;;;;;7322427;19;9192;-82
2023/08/10 01:34:52;;;;;;;;;;;12.70;99.90;;;;;;7322329;19;9191;-82
2023/08/10 01:37:21;;;;;;;;;;;12.70;99.90;;;;;;7322131;19;9478;-83
2023/08/10 01:39:50;;;;;;;;;;;12.70;99.90;;;;;;7321301;19;8995;-82
2023/08/10 01:42:22;;;;;;;;;;;12.80;99.90;;;;;;7322917;19;9209;-82
2023/08/10 01:44:51;;;;;;;;;;;12.80;99.90;;;;;;7322325;19;9177;-82
2023/08/10 01:47:37;;;;;;;;;;;12.80;99.90;;;;;;7321070;19;9154;-82
2023/08/10 01:50:10;;;;;;;;;;;12.80;99.90;;;;;;7322247;19;9503;-82
2023/08/10 01:52:44;;;;;;;;;;;12.80;99.90;;;;;;7322130;19;9247;-82
2023/08/10 01:55:14;;;;;;;;;;;12.70;99.90;;;;;;7322024;19;9268;-82
2023/08/10 01:57:47;;;;;;;;;;;12.80;99.90;;;;;;7322010;19;9233;-82
2023/08/10 02:00:16;;;;;;;;;;;12.80;99.90;;;;;;7322174;19;9174;-82
2023/08/10 02:02:45;;;;;;;;;;;12.80;99.90;;;;;;7323204;19;9166;-82
2023/08/10 02:05:15;;;;;;;;;;;12.80;99.90;;;;;;7322599;19;9189;-82
2023/08/10 02:07:48;;;;;;;;;;;12.70;99.90;;;;;;7320390;19;9226;-82
2023/08/10 02:10:18;;;;;;;;;;;12.70;99.90;;;;;;7321572;19;9189;-82
2023/08/10 02:12:50;;;;;;;;;;;12.70;99.90;;;;;;7324068;19;9205;-82
2023/08/10 02:15:20;;;;;;;;;;;12.70;99.90;;;;;;7328856;19;9191;-82
2023/08/10 02:17:49;;;;;;;;;;;12.70;99.90;;;;;;7328358;19;9530;-83
2023/08/10 02:20:18;;;;;;;;;;;12.70;99.90;;;;;;7328415;19;9138;-82
2023/08/10 02:22:49;;;;;;;;;;;12.80;99.90;;;;;;7328329;19;10655;-82
2023/08/10 02:25:18;;;;;;;;;;;12.80;99.90;;;;;;7328317;19;9197;-82
2023/08/10 02:27:51;;;;;;;;;;;12.80;99.90;;;;;;7326312;19;10212;-82
2023/08/10 02:30:21;;;;;;;;;;;12.80;99.90;;;;;;7327920;19;9490;-82
2023/08/10 02:32:50;;;;;;;;;;;12.80;99.90;;;;;;7328001;19;9287;-82
2023/08/10 02:35:19;;;;;;;;;;;12.80;99.90;;;;;;7327907;19;9211;-82
2023/08/10 02:37:48;;;;;;;;;;;12.80;99.90;;;;;;7327681;19;9468;-83
2023/08/10 02:40:17;;;;;;;;;;;12.80;99.90;;;;;;7325638;19;9295;-82
2023/08/10 02:42:46;;;;;;;;;;;12.80;99.90;;;;;;7329373;19;9173;-82
2023/08/10 02:45:17;;;;;;;;;;;12.80;99.90;;;;;;7327535;19;9056;-82
2023/08/10 02:47:46;;;;;;;;;;;12.80;99.90;;;;;;7325939;19;9209;-82
2023/08/10 02:50:15;;;;;;;;;;;12.80;99.90;;;;;;7327285;19;9197;-83
2023/08/10 02:52:44;;;;;;;;;;;12.80;99.90;;;;;;7327307;19;9238;-82
2023/08/10 02:55:15;;;;;;;;;;;12.80;99.90;;;;;;7327189;19;9128;-82
2023/08/10 02:57:44;;;;;;;;;;;12.80;99.90;;;;;;7327362;19;9125;-82
2023/08/10 03:00:17;;;;;;;;;;;12.90;99.90;;;;;;7326997;19;10201;-82
2023/08/10 03:02:50;;;;;;;;;;;12.90;99.90;;;;;;7326878;19;9253;-82
2023/08/10 03:05:18;;;;;;;;;;;12.90;99.90;;;;;;7326909;19;9470;-82
2023/08/10 03:07:48;;;;;;;;;;;12.90;99.90;;;;;;7325176;19;10284;-82
2023/08/10 03:10:17;;;;;;;;;;;12.90;99.90;;;;;;7326542;19;9223;-83
2023/08/10 03:12:46;;;;;;;;;;;12.90;99.90;;;;;;7326343;19;9664;-82
2023/08/10 03:15:18;;;;;;;;;;;12.90;99.90;;;;;;7326320;19;9295;-82
2023/08/10 03:17:47;;;;;;;;;;;12.90;99.90;;;;;;7326408;19;9209;-82
2023/08/10 03:20:16;;;;;;;;;;;12.90;99.90;;;;;;7326298;19;9131;-82
2023/08/10 03:22:46;;;;;;;;;;;12.90;99.90;;;;;;7325986;19;9197;-82
2023/08/10 03:25:15;;;;;;;;;;;12.90;99.90;;;;;;7324546;19;9471;-82
2023/08/10 03:27:41;;;;;;;;;;;12.90;99.90;;;;;;7324580;19;9205;-82
2023/08/10 03:30:11;;;;;;;;;;;12.80;99.90;;;;;;7326088;19;9099;-82
2023/08/10 03:32:43;;;;;;;;;;;12.80;99.90;;;;;;7325929;19;9193;-83
2023/08/10 03:35:13;;;;;;;;;;;12.90;99.90;;;;;;7325762;19;8944;-82
2023/08/10 03:37:42;;;;;;;;;;;12.90;99.90;;;;;;7324433;19;10156;-82
2023/08/10 03:40:11;;;;;;;;;;;12.90;99.90;;;;;;7324024;19;9270;-82
2023/08/10 03:42:40;;;;;;;;;;;12.90;99.90;;;;;;7327501;19;9185;-82
2023/08/10 03:45:10;;;;;;;;;;;12.90;99.90;;;;;;7325641;19;9188;-82
2023/08/10 03:47:39;;;;;;;;;;;12.90;99.90;;;;;;7324342;19;9197;-82
2023/08/10 03:50:12;;;;;;;;;;;13.00;99.90;;;;;;7325344;19;9185;-82
2023/08/10 03:52:41;;;;;;;;;;;13.00;99.90;;;;;;7325400;19;9172;-83
2023/08/10 03:55:11;;;;;;;;;;;13.00;99.90;;;;;;7325297;19;10431;-82
2023/08/10 03:57:40;;;;;;;;;;;13.10;99.90;;;;;;7323392;19;10673;-82
2023/08/10 04:00:10;;;;;;;;;;;13.10;99.90;;;;;;7324784;19;9168;-82
2023/08/10 04:02:39;;;;;;;;;;;13.20;99.90;;;;;;7325545;19;9157;-82
2023/08/10 04:05:11;;;;;;;;;;;13.20;99.90;;;;;;7324900;19;9135;-83
2023/08/10 04:07:40;;;;;;;;;;;13.20;99.90;;;;;;7323854;19;9209;-82
2023/08/10 04:10:11;;;;;;;;;;;13.30;99.90;;;;;;7324766;19;9205;-82
2023/08/10 04:12:41;;;;;;;;;;;13.30;99.90;;;;;;7324818;19;9222;-82
2023/08/10 04:15:10;;;;;;;;;;;13.40;99.90;;;;;;7324835;19;9178;-82
2023/08/10 04:17:59;;;;;;;;;;;13.40;99.90;;;;;;7323903;19;9274;-83
2023/08/10 04:20:31;;;;;;;;;;;13.40;99.90;;;;;;7324771;19;9201;-82
2023/08/10 04:23:00;;;;;;;;;;;13.40;99.90;;;;;;7324463;19;9173;-83
2023/08/10 04:25:30;;;;;;;;;;;13.40;99.90;;;;;;7324084;19;9154;-83
2023/08/10 04:27:59;;;;;;;;;;;13.40;99.90;;;;;;7322955;19;9171;-82
2023/08/10 04:30:29;;;;;;;;;;;13.50;99.90;;;;;;7324153;19;9470;-82
2023/08/10 04:32:58;;;;;;;;;;;13.50;99.90;;;;;;7324045;19;9250;-82
2023/08/10 04:35:27;;;;;;;;;;;13.40;99.90;;;;;;7322400;19;9184;-82
2023/08/10 04:37:59;;;;;;;;;;;13.50;99.90;;;;;;7323127;19;9207;-82
2023/08/10 04:40:29;;;;;;;;;;;13.50;99.90;;;;;;7322337;19;9523;-83
2023/08/10 04:42:59;;;;;;;;;;;13.50;99.90;;;;;;7326012;19;9149;-82
2023/08/10 04:45:28;;;;;;;;;;;13.50;99.90;;;;;;7324074;19;9169;-82
2023/08/10 04:47:57;;;;;;;;;;;13.50;99.90;;;;;;7322687;19;9186;-82
2023/08/10 04:50:26;;;;;;;;;;;13.50;99.90;;;;;;7323704;19;10141;-83
2023/08/10 04:52:58;;;;;;;;;;;13.50;99.90;;;;;;7323327;19;9481;-82
2023/08/10 04:55:27;;;;;;;;;;;13.50;99.90;;;;;;7323485;19;9295;-82
2023/08/10 04:57:56;;;;;;;;;;;13.60;99.90;;;;;;7323513;19;9236;-82
2023/08/10 05:00:25;;;;;;;;;;;13.60;99.90;;;;;;7323206;19;9186;-83
2023/08/10 05:02:54;;;;;;;;;;;13.60;99.90;;;;;;7323140;19;9239;-82
2023/08/10 05:05:23;;;;;;;;;;;13.70;99.90;;;;;;7323152;19;9115;-83
2023/08/10 05:07:52;;;;;;;;;;;13.70;99.90;;;;;;7322109;19;9504;-82
2023/08/10 05:10:24;;;;;;;;;;;13.80;99.90;;;;;;7322953;19;9441;-82
2023/08/10 05:12:53;;;;;;;;;;;13.80;99.90;;;;;;7322849;19;9192;-82
2023/08/10 05:15:22;;;;;;;;;;;13.80;99.90;;;;;;7322796;19;9203;-82
2023/08/10 05:17:51;;;;;;;;;;;13.80;99.90;;;;;;7322505;19;9161;-82
2023/08/10 05:20:20;;;;;;;;;;;13.80;99.90;;;;;;7322474;19;10416;-82
2023/08/10 05:22:49;;;;;;;;;;;13.90;99.90;;;;;;7322489;19;9193;-83
2023/08/10 05:25:18;;;;;;;;;;;13.90;99.90;;;;;;7322935;19;9213;-82
2023/08/10 05:27:50;;;;;;;;;;;14.00;99.90;;;;;;7322046;19;9212;-83
2023/08/10 05:30:20;;;;;;;;;;;14.00;99.90;;;;;;7325389;19;9194;-83
2023/08/10 05:32:49;;;;;;;;;;;14.00;99.90;;;;;;7322133;19;9177;-82
2023/08/10 05:35:18;;;;;;;;;;;14.10;99.90;;;;;;7322299;19;10728;-82
2023/08/10 05:37:47;;;;;;;;;;;14.10;99.90;;;;;;7322178;19;9169;-83
2023/08/10 05:40:16;;;;;;;;;;;14.20;99.90;;;;;;7320555;19;9186;-82
2023/08/10 05:42:45;;;;;;;;;;;14.30;99.90;;;;;;7324803;19;9231;-82
2023/08/10 05:45:19;;;;;;;;;;;14.30;99.90;;;;;;7321889;19;9217;-82
2023/08/10 05:47:48;;;;;;;;;;;14.40;99.90;;;;;;7324136;19;9501;-82
2023/08/10 05:50:18;;;;;;;;;;;14.40;99.90;;;;;;7329146;19;9173;-82
2023/08/10 05:52:48;;;;;;;;;;;14.50;99.90;;;;;;7329372;19;9199;-82
2023/08/10 05:55:17;;;;;;;;;;;14.60;99.90;;;;;;7329031;19;9225;-82
2023/08/10 05:57:46;;;;;;;;;;;14.60;99.90;;;;;;7328673;19;9201;-82
2023/08/10 06:00:19;;;;;;;;;;;14.70;99.90;;;;;;7329462;19;9201;-83
2023/08/10 06:02:48;;;;;;;;;;;14.80;99.90;;;;;;7329158;19;9304;-82
2023/08/10 06:05:18;;;;;;;;;;;14.90;99.90;;;;;;7328787;19;9185;-82
2023/08/10 06:07:47;;;;;;;;;;;14.90;99.90;;;;;;7328185;19;9181;-82
2023/08/10 06:10:18;;;;;;;;;;;15.00;99.90;;;;;;7328578;19;9170;-82
2023/08/10 06:12:47;;;;;;;;;;;15.00;99.90;;;;;;7328730;19;9347;-82
2023/08/10 06:15:19;;;;;;;;;;;15.10;99.90;;;;;;7328303;19;9273;-82
2023/08/10 06:17:48;;;;;;;;;;;15.20;99.90;;;;;;7328645;19;9139;-82
2023/08/10 06:20:21;;;;;;;;;;;15.30;99.90;;;;;;7328508;19;9252;-82
2023/08/10 06:22:51;;;;;;;;;;;15.30;99.90;;;;;;7328176;19;9216;-82
2023/08/10 06:25:20;;;;;;;;;;;15.40;99.90;;;;;;7328144;19;9405;-82
2023/08/10 06:27:49;;;;;;;;;;;15.40;99.90;;;;;;7327875;19;9422;-82
2023/08/10 06:30:21;;;;;;;;;;;15.50;99.90;;;;;;7328266;19;9181;-83
2023/08/10 06:32:51;;;;;;;;;;;15.60;99.90;;;;;;7328504;19;9298;-83
2023/08/10 06:35:21;;;;;;;;;;;15.70;99.90;;;;;;7328689;19;9165;-82
2023/08/10 06:37:51;;;;;;;;;;;15.70;99.90;;;;;;7328291;19;9173;-82
2023/08/10 06:40:21;;;;;;;;;;;15.90;99.90;;;;;;7325957;19;9547;-83
2023/08/10 06:42:50;;;;;;;;;;;15.90;99.90;;;;;;7330811;19;9225;-82
2023/08/10 06:45:22;;;;;;;;;;;16.10;99.90;;;;;;7325841;19;11103;-82
2023/08/10 06:47:51;;;;;;;;;;;16.10;99.90;;;;;;7327253;19;9226;-82
2023/08/10 06:50:21;;;;;;;;;;;16.20;99.90;;;;;;7327454;19;9180;-82
2023/08/10 06:52:51;;;;;;;;;;;16.20;99.90;;;;;;7327485;19;9169;-82
2023/08/10 06:55:20;;;;;;;;;;;16.30;99.90;;;;;;7327153;19;9356;-82
2023/08/10 06:57:49;;;;;;;;;;;16.30;99.90;;;;;;7327075;19;9511;-82
2023/08/10 07:00:24;;;;;;;;;;;16.30;99.90;;;;;;7324584;19;10319;-82
2023/08/10 07:02:54;;;;;;;;;;;16.40;99.90;;;;;;7327099;19;9192;-82
2023/08/10 07:05:26;;;;;;;;;;;16.50;99.90;;;;;;7327026;19;9468;-82
2023/08/10 07:07:54;;;;;;;;;;;16.50;99.90;;;;;;7327035;19;9261;-82
2023/08/10 07:10:24;;;;;;;;;;;16.60;99.90;;;;;;7326978;19;9400;-82
2023/08/10 07:12:53;;;;;;;;;;;16.60;99.90;;;;;;7326885;19;9256;-83
2023/08/10 07:15:24;;;;;;;;;;;16.60;99.90;;;;;;7327070;19;9620;-83
2023/08/10 07:17:54;;;;;;;;;;;16.70;99.90;;;;;;7326920;19;9239;-82
2023/08/10 07:20:23;;;;;;;;;;;16.80;99.90;;;;;;7326784;19;10353;-82
2023/08/10 07:22:52;;;;;;;;;;;17.00;99.90;;;;;;7326500;19;9189;-83
2023/08/10 07:25:22;;;;;;;;;;;17.30;99.90;;;;;;7326307;19;9209;-82
2023/08/10 07:27:51;;;;;;;;;;;17.40;99.90;;;;;;7326413;19;9193;-83
2023/08/10 07:30:20;;;;;;;;;;;17.50;99.90;;;;;;7326186;19;9185;-83
2023/08/10 07:32:51;;;;;;;;;;;17.70;99.90;;;;;;7326238;19;9166;-82
2023/08/10 07:35:21;;;;;;;;;;;17.90;99.90;;;;;;7326069;19;9452;-82
2023/08/10 07:37:50;;;;;;;;;;;18.10;99.90;;;;;;7325773;19;9195;-82
2023/08/10 07:40:19;;;;;;;;;;;18.30;99.90;;;;;;7324229;19;10389;-82
2023/08/10 07:42:48;;;;;;;;;;;18.60;99.90;;;;;;7328646;19;9157;-83
2023/08/10 07:45:17;;;;;;;;;;;19.00;99.90;;;;;;7325260;19;10412;-82
2023/08/10 07:47:46;;;;;;;;;;;19.40;99.90;;;;;;7325433;19;9553;-82
2023/08/10 07:50:17;;;;;;;;;;;19.70;99.90;;;;;;7323129;19;9473;-82
2023/08/10 07:52:47;;;;;;;;;;;20.10;99.90;;;;;;7325381;19;9260;-83
2023/08/10 07:55:16;;;;;;;;;;;20.40;97.70;;;;;;7325344;19;9501;-82
2023/08/10 07:57:45;;;;;;;;;;;20.60;94.70;;;;;;7325132;19;9383;-82
2023/08/10 08:00:15;;;;;;;;;;;20.80;95.50;;;;;;7324918;19;10056;-82
2023/08/10 08:02:44;;;;;;;;;;;20.70;94.10;;;;;;7324892;19;9145;-82
2023/08/10 08:05:13;;;;;;;;;;;20.70;93.40;;;;;;7325050;19;10378;-83
2023/08/10 08:07:45;;;;;;;;;;;20.80;94.00;;;;;;7324831;19;9208;-82
2023/08/10 08:10:14;;;;;;;;;;;21.10;91.70;;;;;;7322513;19;9495;-82
2023/08/10 08:12:43;;;;;;;;;;;21.40;92.40;;;;;;7324437;19;9429;-82
2023/08/10 08:15:12;;;;;;;;;;;21.40;90.80;;;;;;7324725;19;9117;-82
2023/08/10 08:18:11;;;;;;;;;;;21.60;90.90;;;;;;7324735;19;9185;-82
2023/08/10 08:20:40;;;;;;;;;;;21.80;86.30;;;;;;7324521;19;9209;-82
2023/08/10 08:23:12;;;;;;;;;;;21.70;89.50;;;;;;7324392;19;10314;-82
2023/08/10 08:25:41;;;;;;;;;;;21.30;90.00;;;;;;7324311;19;9177;-83
2023/08/10 08:28:10;;;;;;;;;;;21.30;89.80;;;;;;7324146;19;9201;-82
2023/08/10 08:30:39;;;;;;;;;;;21.30;89.70;;;;;;7322421;19;9459;-83
2023/08/10 08:33:09;;;;;;;;;;;21.30;89.10;;;;;;7323990;19;9187;-82
2023/08/10 08:35:39;;;;;;;;;;;21.10;90.40;;;;;;7324076;19;9519;-82
2023/08/10 08:38:08;;;;;;;;;;;20.70;90.80;;;;;;7323804;19;10641;-82
2023/08/10 08:40:40;;;;;;;;;;;20.50;91.90;;;;;;7323060;19;10304;-82
2023/08/10 08:43:09;;;;;;;;;;;20.30;93.00;;;;;;7324389;19;9303;-81
2023/08/10 08:45:38;;;;;;;;;;;20.20;93.10;;;;;;7325230;19;10176;-82
2023/08/10 08:48:09;;;;;;;;;;;20.10;91.70;;;;;;7325817;19;9004;-83
2023/08/10 08:50:39;;;;;;;;;;;20.00;92.90;;;;;;7324203;19;9275;-82
2023/08/10 08:53:10;;;;;;;;;;;20.00;93.50;;;;;;7324385;19;9418;-82
2023/08/10 08:55:46;;;;;;;;;;;20.10;93.50;;;;;;7323499;19;9252;-82
2023/08/10 08:58:16;;;;;;;;;;;20.20;93.50;;;;;;7323307;19;9282;-82
2023/08/10 09:00:50;;;;;;;;;;;20.30;93.00;;;;;;7323447;19;9202;-82
2023/08/10 09:03:20;;;;;;;;;;;20.40;92.70;;;;;;7323260;19;9142;-82
2023/08/10 09:05:51;;;;;;;;;;;20.60;91.40;;;;;;7323195;19;9312;-82
2023/08/10 09:08:21;;;;;;;;;;;20.60;92.10;;;;;;7322955;19;9169;-82
2023/08/10 09:10:53;;;;;;;;;;;20.60;89.40;;;;;;7321273;19;9141;-82
2023/08/10 09:13:24;;;;;;;;;;;20.70;91.30;;;;;;7322842;19;10189;-82
2023/08/10 09:16:08;;;;;;;;;;;20.70;90.50;;;;;;7322964;19;8944;-82
2023/08/10 09:18:39;;;;;;;;;;;20.70;90.60;;;;;;7323098;19;9253;-83
2023/08/10 09:21:17;;;;;;;;;;;20.60;90.70;;;;;;7322901;19;10248;-82
2023/08/10 09:23:47;;;;;;;;;;;20.50;89.80;;;;;;7328781;19;9189;-82
2023/08/10 09:26:22;;;;;;;;;;;20.40;87.70;;;;;;7330383;19;9192;-82
2023/08/10 09:28:52;;;;;;;;;;;20.50;90.40;;;;;;7329636;19;9183;-82
2023/08/10 09:31:26;;;;;;;;;;;20.60;90.30;;;;;;7330369;19;9195;-82
2023/08/10 09:33:56;;;;;;;;;;;20.70;89.80;;;;;;7330057;19;9208;-82
2023/08/10 09:36:28;;;;;;;;;;;20.50;86.30;;;;;;7329816;19;9489;-82
2023/08/10 09:38:58;;;;;;;;;;;20.60;90.10;;;;;;7329481;19;9209;-82
2023/08/10 09:41:30;;;;;;;;;;;20.60;89.20;;;;;;7329897;19;9883;-82
2023/08/10 09:43:59;;;;;;;;;;;20.60;89.40;;;;;;7329549;19;9182;-82
2023/08/10 09:46:28;;;;;;;;;;;20.50;90.10;;;;;;7329364;19;9610;-82
2023/08/10 09:48:57;;;;;;;;;;;20.60;90.30;;;;;;7328847;19;9031;-82
2023/08/10 09:51:26;;;;;;;;;;;20.60;90.30;;;;;;7329343;19;9165;-82
2023/08/10 09:53:56;;;;;;;;;;;20.70;90.40;;;;;;7329184;19;9189;-82
2023/08/10 09:56:25;;;;;;;;;;;20.60;87.70;;;;;;7329250;19;9322;-82
2023/08/10 09:58:57;;;;;;;;;;;20.50;87.00;;;;;;7329609;19;9177;-82
2023/08/10 10:01:26;;;;;;;;;;;20.50;89.80;;;;;;7329089;19;9193;-82
2023/08/10 10:03:55;;;;;;;;;;;20.50;89.80;;;;;;7328738;19;9205;-82
2023/08/10 10:06:24;;;;;;;;;;;20.60;90.00;;;;;;7329073;19;9113;-82
2023/08/10 10:09:00;;;;;;;;;;;20.70;89.40;;;;;;7328598;19;9306;-82
2023/08/10 10:11:33;;;;;;;;;;;20.80;89.30;;;;;;7328662;19;10314;-82
2023/08/10 10:14:06;;;;;;;;;;;20.80;88.50;;;;;;7328619;19;9195;-82
2023/08/10 10:16:37;;;;;;;;;;;20.90;88.50;;;;;;7328604;19;9205;-83
2023/08/10 10:19:06;;;;;;;;;;;20.90;87.70;;;;;;7328304;19;9476;-82
2023/08/10 10:21:35;;;;;;;;;;;21.00;85.10;;;;;;7328345;19;9245;-82
2023/08/10 10:24:06;;;;;;;;;;;21.00;86.50;;;;;;7328035;19;9126;-83
2023/08/10 10:26:34;;;;;;;;;;;21.00;86.50;;;;;;7328128;19;9189;-82
2023/08/10 10:29:17;;;;;;;;;;;21.10;86.40;;;;;;7327861;19;10150;-82
2023/08/10 10:31:46;;;;;;;;;;;21.10;86.20;;;;;;7328085;19;9186;-82
2023/08/10 10:34:20;;;;;;;;;;;21.20;86.20;;;;;;7327721;19;10330;-82
2023/08/10 10:37:07;;;;;;;;;;;21.20;85.30;;;;;;7327776;19;9156;-82
2023/08/10 10:39:37;;;;;;;;;;;21.20;85.30;;;;;;7326566;19;10395;-82
2023/08/10 10:42:07;;;;;;;;;;;21.30;85.30;;;;;;7331591;19;9233;-82
2023/08/10 10:45:03;;;;;;;;;;;21.30;83.90;;;;;;7327584;19;9203;-82
2023/08/10 10:47:40;;;;;;;;;;;21.30;85.40;;;;;;7327587;19;9190;-82
2023/08/10 10:50:22;;;;;;;;;;;21.30;85.00;;;;;;7326608;19;9177;-83
2023/08/10 10:52:58;;;;;;;;;;;21.40;84.20;;;;;;7327665;19;9256;-82
2023/08/10 10:55:30;;;;;;;;;;;21.40;83.50;;;;;;7327356;19;9488;-82
2023/08/10 10:58:02;;;;;;;;;;;21.40;83.40;;;;;;7327156;19;9476;-83
2023/08/10 11:00:36;;;;;;;;;;;21.40;80.30;;;;;;7327411;19;9200;-82
2023/08/10 11:03:07;;;;;;;;;;;21.40;82.40;;;;;;7328446;19;9110;-82
2023/08/10 11:05:36;;;;;;;;;;;21.50;82.80;;;;;;7328421;19;9327;-82
2023/08/10 11:08:07;;;;;;;;;;;21.50;82.00;;;;;;7326883;19;9482;-82
2023/08/10 11:10:40;;;;;;;;;;;21.40;80.90;;;;;;7325601;19;9185;-82
2023/08/10 11:13:11;;;;;;;;;;;21.40;82.80;;;;;;7326783;19;9517;-82
2023/08/10 11:15:43;;;;;;;;;;;21.50;82.50;;;;;;7327105;19;9508;-82
2023/08/10 11:18:14;;;;;;;;;;;21.60;82.70;;;;;;7326696;19;9196;-82
2023/08/10 11:20:48;;;;;;;;;;;21.60;81.10;;;;;;7326695;19;9189;-82
2023/08/10 11:23:17;;;;;;;;;;;21.60;80.50;;;;;;7326568;19;9319;-82
2023/08/10 11:25:52;;;;;;;;;;;21.60;80.90;;;;;;7326124;19;9170;-82
2023/08/10 11:28:23;;;;;;;;;;;21.60;80.50;;;;;;7326393;19;9395;-83
2023/08/10 11:30:55;;;;;;;;;;;21.60;79.80;;;;;;7325017;19;9302;-82
2023/08/10 11:33:24;;;;;;;;;;;21.60;79.60;;;;;;7326186;19;10206;-82
2023/08/10 11:35:58;;;;;;;;;;;21.60;79.40;;;;;;7326054;19;9209;-82
2023/08/10 11:38:29;;;;;;;;;;;21.60;79.00;;;;;;7326009;19;9232;-82
2023/08/10 11:40:59;;;;;;;;;;;21.60;79.00;;;;;;7325492;19;9205;-82
2023/08/10 11:43:29;;;;;;;;;;;21.70;79.10;;;;;;7325650;19;9252;-82
2023/08/10 11:46:01;;;;;;;;;;;21.70;78.20;;;;;;7324508;19;9416;-83
2023/08/10 11:48:31;;;;;;;;;;;21.60;78.30;;;;;;7325816;19;9215;-83
2023/08/10 11:51:05;;;;;;;;;;;21.60;78.40;;;;;;7324299;19;9113;-82
2023/08/10 11:53:41;;;;;;;;;;;21.60;79.50;;;;;;7325972;19;10363;-82
2023/08/10 11:56:10;;;;;;;;;;;21.70;79.10;;;;;;7325238;19;9306;-82
2023/08/10 11:58:42;;;;;;;;;;;21.60;79.00;;;;;;7325433;19;9587;-82
2023/08/10 12:01:18;;;;;;;;;;;21.70;78.80;;;;;;7325508;19;9471;-82
2023/08/10 12:03:51;;;;;;;;;;;21.60;78.70;;;;;;7325051;19;9209;-83
2023/08/10 12:06:20;;;;;;;;;;;21.60;79.40;;;;;;7325343;19;9490;-82
2023/08/10 12:08:51;;;;;;;;;;;21.70;79.50;;;;;;7324867;19;9175;-83
2023/08/10 12:11:22;;;;;;;;;;;21.70;78.80;;;;;;7323642;19;9165;-82
2023/08/10 12:13:54;;;;;;;;;;;21.80;78.00;;;;;;7324896;19;9163;-82
2023/08/10 12:16:26;;;;;;;;;;;21.80;79.30;;;;;;7324667;19;9291;-82
2023/08/10 12:18:54;;;;;;;;;;;21.90;78.70;;;;;;7324718;19;10667;-82
2023/08/10 12:21:23;;;;;;;;;;;22.10;77.70;;;;;;7324775;19;9209;-82
2023/08/10 12:23:53;;;;;;;;;;;22.10;77.50;;;;;;7324762;19;9146;-82
2023/08/10 12:26:22;;;;;;;;;;;22.10;76.80;;;;;;7324567;19;9456;-82
2023/08/10 12:28:51;;;;;;;;;;;22.10;76.40;;;;;;7324730;19;9132;-82
2023/08/10 12:31:21;;;;;;;;;;;22.10;76.10;;;;;;7323191;19;8996;-82
2023/08/10 12:33:55;;;;;;;;;;;22.10;76.50;;;;;;7324184;19;9184;-82
2023/08/10 12:36:24;;;;;;;;;;;22.00;76.10;;;;;;7324221;19;9478;-82
2023/08/10 12:38:54;;;;;;;;;;;22.00;76.50;;;;;;7323757;19;9241;-82
2023/08/10 12:41:23;;;;;;;;;;;21.90;76.80;;;;;;7325803;19;9514;-82
2023/08/10 12:43:52;;;;;;;;;;;21.90;77.10;;;;;;7324165;19;9187;-82
2023/08/10 12:46:21;;;;;;;;;;;22.00;77.10;;;;;;7323721;19;9197;-81
2023/08/10 12:48:53;;;;;;;;;;;21.90;76.90;;;;;;7323796;19;10213;-82
2023/08/10 12:51:22;;;;;;;;;;;21.90;76.80;;;;;;7322492;19;9839;-82
2023/08/10 12:53:51;;;;;;;;;;;21.90;77.20;;;;;;7323305;19;9202;-82
2023/08/10 12:56:20;;;;;;;;;;;21.90;77.00;;;;;;7322291;19;9460;-82
2023/08/10 12:58:49;;;;;;;;;;;22.00;76.60;;;;;;7322104;19;9254;-82
2023/08/10 13:01:18;;;;;;;;;;;21.80;75.40;;;;;;7323284;19;9261;-82
2023/08/10 13:03:47;;;;;;;;;;;21.80;76.50;;;;;;7323349;19;9197;-82
2023/08/10 13:06:19;;;;;;;;;;;21.80;76.50;;;;;;7323422;19;9169;-82
2023/08/10 13:08:50;;;;;;;;;;;21.80;76.70;;;;;;7323308;19;9247;-82
2023/08/10 13:11:19;;;;;;;;;;;21.80;76.60;;;;;;7322083;19;9463;-82
2023/08/10 13:13:48;;;;;;;;;;;21.70;76.10;;;;;;7323127;19;8944;-82
2023/08/10 13:16:18;;;;;;;;;;;21.60;77.10;;;;;;7323352;19;9206;-82
2023/08/10 13:18:47;;;;;;;;;;;21.60;77.80;;;;;;7323357;19;9510;-82
2023/08/10 13:21:18;;;;;;;;;;;21.60;78.20;;;;;;7323008;19;9194;-82
2023/08/10 13:23:47;;;;;;;;;;;21.60;78.10;;;;;;7322763;19;9193;-83
2023/08/10 13:26:16;;;;;;;;;;;21.50;78.60;;;;;;7322800;19;9217;-82
2023/08/10 13:28:45;;;;;;;;;;;21.50;79.00;;;;;;7322729;19;8944;-83
2023/08/10 13:31:14;;;;;;;;;;;21.50;79.00;;;;;;7321556;19;9201;-83
2023/08/10 13:33:43;;;;;;;;;;;21.50;79.50;;;;;;7322462;19;9623;-82
2023/08/10 13:36:14;;;;;;;;;;;21.40;79.50;;;;;;7322125;19;9182;-82
2023/08/10 13:38:45;;;;;;;;;;;21.30;80.00;;;;;;7322369;19;9434;-82
2023/08/10 13:41:15;;;;;;;;;;;21.20;80.60;;;;;;7324010;19;9205;-82
2023/08/10 13:43:45;;;;;;;;;;;21.20;81.30;;;;;;7322058;19;9252;-82
2023/08/10 13:46:14;;;;;;;;;;;21.20;81.80;;;;;;7322157;19;9541;-82
2023/08/10 13:48:43;;;;;;;;;;;21.10;82.50;;;;;;7321722;19;9538;-83
2023/08/10 13:51:12;;;;;;;;;;;21.10;83.20;;;;;;7320847;19;9151;-82
2023/08/10 13:53:41;;;;;;;;;;;21.10;83.20;;;;;;7321765;19;9209;-83
2023/08/10 13:56:13;;;;;;;;;;;21.20;82.70;;;;;;7321659;19;9216;-82
2023/08/10 13:58:41;;;;;;;;;;;21.30;82.20;;;;;;7321728;19;9181;-82
2023/08/10 14:01:12;;;;;;;;;;;21.30;82.20;;;;;;7321437;19;9196;-82
2023/08/10 14:03:41;;;;;;;;;;;21.40;82.30;;;;;;7321667;19;9528;-83
2023/08/10 14:06:11;;;;;;;;;;;21.40;82.20;;;;;;7321623;19;9337;-82
2023/08/10 14:08:40;;;;;;;;;;;21.40;83.10;;;;;;7323851;19;9214;-82
2023/08/10 14:11:11;;;;;;;;;;;21.40;82.60;;;;;;7327701;19;9169;-82
2023/08/10 14:13:40;;;;;;;;;;;21.50;82.50;;;;;;7328413;19;9221;-82
2023/08/10 14:16:09;;;;;;;;;;;21.50;82.90;;;;;;7328401;19;9201;-82
2023/08/10 14:18:38;;;;;;;;;;;21.30;83.20;;;;;;7328432;19;9173;-82
2023/08/10 14:21:07;;;;;;;;;;;21.30;83.90;;;;;;7328509;19;9298;-82
2023/08/10 14:23:36;;;;;;;;;;;21.40;83.30;;;;;;7328272;19;9472;-82
2023/08/10 14:26:05;;;;;;;;;;;21.30;83.40;;;;;;7328164;19;9193;-82
2023/08/10 14:28:36;;;;;;;;;;;21.20;83.80;;;;;;7328381;19;9166;-83
2023/08/10 14:31:05;;;;;;;;;;;21.20;84.10;;;;;;7327293;19;9233;-82
2023/08/10 14:33:36;;;;;;;;;;;21.20;84.40;;;;;;7328038;19;9391;-82
2023/08/10 14:36:05;;;;;;;;;;;21.20;84.10;;;;;;7328045;19;9502;-82
2023/08/10 14:38:34;;;;;;;;;;;21.20;84.30;;;;;;7327795;19;9187;-82
2023/08/10 14:41:03;;;;;;;;;;;21.20;84.60;;;;;;7328315;19;9519;-82
2023/08/10 14:43:33;;;;;;;;;;;21.10;85.80;;;;;;7327616;19;9458;-82
2023/08/10 14:46:04;;;;;;;;;;;21.10;86.40;;;;;;7327641;19;9000;-82
2023/08/10 14:48:33;;;;;;;;;;;21.10;86.40;;;;;;7327777;19;8997;-82